createdAt,value
2023-05-22T00:02:51.208Z,40.24
2023-05-22T00:05:44.446Z,40.25
2023-05-22T00:08:39.625Z,40.40
2023-05-22T00:11:33.769Z,40.37
2023-05-22T00:14:24.570Z,40.59
2023-05-22T00:17:35.913Z,40.44
2023-05-22T00:20:30.018Z,40.55
2023-05-22T00:23:23.760Z,40.68
2023-05-22T00:26:20.314Z,40.72
2023-05-22T00:29:10.357Z,40.70
2023-05-22T00:31:58.271Z,40.68
2023-05-22T00:34:46.063Z,41.11
2023-05-22T00:37:38.849Z,40.55
2023-05-22T00:40:28.882Z,41.23
2023-05-22T00:43:18.890Z,40.72
2023-05-22T00:46:08.304Z,40.91
2023-05-22T00:48:59.313Z,40.78
2023-05-22T00:51:58.023Z,40.99
2023-05-22T00:54:45.612Z,40.92
2023-05-22T00:58:31.186Z,41.27
2023-05-22T01:02:44.686Z,41.06
2023-05-22T01:11:15.350Z,41.34
2023-05-22T01:19:57.695Z,41.53
2023-05-22T01:28:41.198Z,41.70
2023-05-22T01:31:38.934Z,41.19
2023-05-22T01:34:48.585Z,41.38
2023-05-22T01:38:14.186Z,41.53
2023-05-22T01:42:03.320Z,41.60
2023-05-22T01:45:34.018Z,41.38
2023-05-22T01:48:57.497Z,41.60
2023-05-22T01:53:08.092Z,41.67
2023-05-22T02:00:45.695Z,41.57
2023-05-22T02:04:00.277Z,41.57
2023-05-22T02:07:44.140Z,41.44
2023-05-22T02:10:33.422Z,41.52
2023-05-22T02:13:22.009Z,41.66
2023-05-22T02:16:15.293Z,41.76
2023-05-22T02:19:12.383Z,41.77
2023-05-22T02:22:05.429Z,41.42
2023-05-22T02:24:57.291Z,41.63
2023-05-22T02:27:53.118Z,41.71
2023-05-22T02:30:41.318Z,41.54
2023-05-22T02:33:39.813Z,41.73
2023-05-22T02:36:32.649Z,41.62
2023-05-22T02:39:24.072Z,41.53
2023-05-22T02:42:11.989Z,41.57
2023-05-22T02:45:12.625Z,41.61
2023-05-22T02:48:04.139Z,41.67
2023-05-22T02:50:53.323Z,41.55
2023-05-22T02:53:44.482Z,41.78
2023-05-22T02:56:34.982Z,41.50
2023-05-22T02:59:25.427Z,41.49
2023-05-22T03:02:19.391Z,41.51
2023-05-22T03:05:19.677Z,41.67
2023-05-22T03:08:16.316Z,41.60
2023-05-22T03:11:09.007Z,41.67
2023-05-22T03:13:57.183Z,41.44
2023-05-22T03:16:44.858Z,41.72
2023-05-22T03:19:36.252Z,41.56
2023-05-22T03:22:24.089Z,41.45
2023-05-22T03:25:12.081Z,41.49
2023-05-22T03:27:59.819Z,41.52
2023-05-22T03:30:50.971Z,41.60
2023-05-22T03:33:43.348Z,42.06
2023-05-22T03:36:34.318Z,41.76
2023-05-22T03:39:21.772Z,41.82
2023-05-22T03:42:16.895Z,41.72
2023-05-22T03:45:05.539Z,41.75
2023-05-22T03:47:53.471Z,41.67
2023-05-22T03:50:41.872Z,41.71
2023-05-22T03:53:30.772Z,41.79
2023-05-22T03:56:22.695Z,42.05
2023-05-22T03:59:17.701Z,41.93
2023-05-22T04:02:06.020Z,42.10
2023-05-22T04:05:00.475Z,42.15
2023-05-22T04:07:53.666Z,42.19
2023-05-22T04:11:01.727Z,42.42
2023-05-22T04:13:51.548Z,42.32
2023-05-22T04:16:39.183Z,42.32
2023-05-22T04:19:31.866Z,42.47
2023-05-22T04:22:23.213Z,42.54
2023-05-22T04:25:11.036Z,42.53
2023-05-22T04:28:00.034Z,42.52
2023-05-22T04:30:57.190Z,42.83
2023-05-22T04:33:53.074Z,42.52
2023-05-22T04:36:45.541Z,42.52
2023-05-22T04:39:40.552Z,42.59
2023-05-22T04:42:28.812Z,42.79
2023-05-22T04:45:19.982Z,42.76
2023-05-22T04:48:13.081Z,42.92
2023-05-22T04:51:03.009Z,43.03
2023-05-22T04:53:55.076Z,43.05
2023-05-22T04:56:45.723Z,42.99
2023-05-22T04:59:45.960Z,43.13
2023-05-22T05:02:42.850Z,42.91
2023-05-22T05:05:39.396Z,42.73
2023-05-22T05:08:32.518Z,42.93
2023-05-22T05:11:39.198Z,43.04
2023-05-22T05:14:41.116Z,42.75
2023-05-22T05:17:37.274Z,42.79
2023-05-22T05:20:30.989Z,42.81
2023-05-22T05:23:25.294Z,42.83
2023-05-22T05:26:25.979Z,42.85
2023-05-22T05:29:19.090Z,43.11
2023-05-22T05:33:16.510Z,43.90
2023-05-22T05:36:47.770Z,43.10
2023-05-22T05:39:53.095Z,43.13
2023-05-22T05:46:43.288Z,42.97
2023-05-22T05:50:04.520Z,42.97
2023-05-22T05:53:22.813Z,43.36
2023-05-22T05:56:30.395Z,43.04
2023-05-22T06:03:44.241Z,43.03
2023-05-22T06:06:49.073Z,43.14
2023-05-22T06:10:09.988Z,42.96
2023-05-22T06:13:19.770Z,42.92
2023-05-22T06:16:07.153Z,43.04
2023-05-22T06:18:57.251Z,43.08
2023-05-22T06:30:39.640Z,43.12
2023-05-22T06:31:31.785Z,42.98
2023-05-22T06:34:52.248Z,42.98
2023-05-22T06:42:36.745Z,43.08
2023-05-22T06:46:31.602Z,44.02
2023-05-22T16:01:10.124Z,30.77
2023-05-22T16:04:06.938Z,30.61
2023-05-22T16:07:06.814Z,30.72
2023-05-22T16:10:00.764Z,31.09
2023-05-22T16:13:33.395Z,30.78
2023-05-22T16:16:31.279Z,30.87
2023-05-22T16:19:21.533Z,31.15
2023-05-22T16:22:14.060Z,30.97
2023-05-22T16:25:04.135Z,31.18
2023-05-22T16:33:46.118Z,30.99
2023-05-22T17:28:23.693Z,31.20
2023-05-22T17:41:13.592Z,31.11
2023-05-22T17:44:01.919Z,31.08
2023-05-22T17:46:49.691Z,31.19
2023-05-22T17:49:41.071Z,31.24
2023-05-22T17:52:28.938Z,31.42
2023-05-22T17:55:26.980Z,31.51
2023-05-22T17:58:47.609Z,32.86
2023-05-22T18:01:53.741Z,33.13
2023-05-22T18:04:46.015Z,32.54
2023-05-22T18:32:08.825Z,33.17
2023-05-22T18:35:44.630Z,33.61
2023-05-22T18:39:04.496Z,33.31
2023-05-22T18:41:54.390Z,33.73
2023-05-22T18:45:18.782Z,33.80
2023-05-22T18:48:16.865Z,33.53
2023-05-22T18:51:03.978Z,33.89
2023-05-22T19:32:16.737Z,34.44
2023-05-22T19:41:29.526Z,34.72
2023-05-22T19:44:24.468Z,34.91
2023-05-22T19:47:32.066Z,34.65
2023-05-22T19:50:59.518Z,34.84
2023-05-22T19:54:34.566Z,35.31
2023-05-22T19:57:59.477Z,35.35
2023-05-22T20:02:06.432Z,35.38
2023-05-22T20:04:54.939Z,35.25
2023-05-22T20:07:47.304Z,35.32
2023-05-22T20:10:35.067Z,35.23
2023-05-22T20:13:21.789Z,35.34
2023-05-22T20:16:12.931Z,35.17
